SBCP/CAW METAR and TAF weather

Enter ICAO airport designator
Station Type Date Time Source
SBCP METAR 2019/09/20 21:00 UTC NOAA

SBCP 202100Z 05016KT 9999 FEW008 25/21 Q1013


Station Type Date Time Source
SBCP Decoded METAR 2019/09/20 21:00 UTC NOAA

Campos, Brazil (SBCP) 21-45S 041-20W 11M
Sep 20, 2019 - 05:00 PM EDT / 2019.09.20 2100 UTC
Wind: from the NE (050 degrees) at 18 MPH (16 KT):0
Visibility: greater than 7 mile(s):0
Sky conditions: mostly clear
Temperature: 77 F (25 C)
Dew Point: 69 F (21 C)
Relative Humidity: 78%
Pressure (altimeter): 29.91 in. Hg (1013 hPa)
ob: SBCP 202100Z 05016KT 9999 FEW008 25/21 Q1013
cycle: 21

Station Type Date Time Source
SBCP TAF 2019/09/21 06:46 UTC NOAA

TAF SBCP 210245Z 2106/2118 02005KT 7000 SCT017 TN23/2110Z TX33/2118Z
BECMG 2109/2111 04005KT
BECMG 2111/2113 18005KT
BECMG 2115/2117 16010KT
RMK PGW

Example: see airport list